createdAt,value
2023-05-06T00:00:03.714Z,89.80
2023-05-06T00:02:30.551Z,90.50
2023-05-06T00:04:57.411Z,90.40
2023-05-06T00:07:24.200Z,90.90
2023-05-06T00:09:51.021Z,90.90
2023-05-06T00:12:17.776Z,91.20
2023-05-06T00:14:44.549Z,91.20
2023-05-06T00:17:11.472Z,91.30
2023-05-06T00:19:38.772Z,90.90
2023-05-06T00:22:05.758Z,90.90
2023-05-06T00:24:32.517Z,90.80
2023-05-06T00:26:59.268Z,90.60
2023-05-06T00:29:26.005Z,90.20
2023-05-06T00:31:52.798Z,90.10
2023-05-06T00:34:19.531Z,90.10
2023-05-06T00:36:46.235Z,90.40
2023-05-06T00:39:12.952Z,90.60
2023-05-06T00:41:39.677Z,90.60
2023-05-06T00:44:06.417Z,90.50
2023-05-06T00:46:33.772Z,90.70
2023-05-06T00:49:00.670Z,90.30
2023-05-06T00:51:27.745Z,90.60
2023-05-06T00:53:54.602Z,90.20
2023-05-06T00:56:21.427Z,90.40
2023-05-06T00:58:48.670Z,90.70
2023-05-06T01:01:15.593Z,90.40
2023-05-06T01:03:42.690Z,91.20
2023-05-06T01:06:26.066Z,91.50
2023-05-06T01:09:30.799Z,92.20
2023-05-06T01:12:03.660Z,91.70
2023-05-06T01:14:59.663Z,91.70
2023-05-06T01:17:28.387Z,91.30
2023-05-06T01:19:58.559Z,90.90
2023-05-06T01:22:27.876Z,91.00
2023-05-06T01:24:54.629Z,90.70
2023-05-06T01:27:21.950Z,90.30
2023-05-06T01:29:49.134Z,90.30
2023-05-06T01:32:36.521Z,90.20
2023-05-06T01:35:12.155Z,88.20
2023-05-06T01:37:59.961Z,88.20
2023-05-06T01:40:28.323Z,88.20
2023-05-06T01:42:55.699Z,88.00
2023-05-06T01:45:26.374Z,88.10
2023-05-06T01:47:53.601Z,88.10
2023-05-06T01:50:20.846Z,87.70
2023-05-06T01:52:57.535Z,88.10
2023-05-06T01:55:24.296Z,87.60
2023-05-06T01:57:51.434Z,87.50
2023-05-06T02:00:18.415Z,87.70
2023-05-06T02:02:45.301Z,87.60
2023-05-06T02:05:12.107Z,88.10
2023-05-06T02:07:38.834Z,88.60
2023-05-06T02:10:06.074Z,89.00
2023-05-06T02:12:32.869Z,90.10
2023-05-06T02:14:59.610Z,90.10
2023-05-06T02:17:26.467Z,90.70
2023-05-06T02:19:53.257Z,90.40
2023-05-06T02:22:20.070Z,90.70
2023-05-06T02:24:46.762Z,90.80
2023-05-06T02:27:13.631Z,90.90
2023-05-06T02:29:40.440Z,91.60
2023-05-06T02:32:07.526Z,91.90
2023-05-06T02:34:34.301Z,92.30
2023-05-06T02:37:01.278Z,92.30
2023-05-06T02:39:28.174Z,92.40
2023-05-06T02:41:54.976Z,92.30
2023-05-06T02:44:21.796Z,92.40
2023-05-06T02:46:48.579Z,92.40
2023-05-06T02:49:15.409Z,92.50
2023-05-06T02:51:42.187Z,92.70
2023-05-06T02:54:08.969Z,92.70
2023-05-06T02:56:35.721Z,92.80
2023-05-06T02:59:02.589Z,92.60
2023-05-06T03:01:29.379Z,92.60
2023-05-06T03:03:56.236Z,92.80
2023-05-06T03:06:23.061Z,92.90
2023-05-06T03:08:49.805Z,93.10
2023-05-06T03:11:16.563Z,93.20
2023-05-06T03:13:43.401Z,93.00
2023-05-06T03:16:14.287Z,93.40
2023-05-06T03:18:41.180Z,93.90
2023-05-06T03:21:08.010Z,94.00
2023-05-06T03:23:34.808Z,94.40
2023-05-06T03:26:01.525Z,94.20
2023-05-06T03:28:28.273Z,94.10
2023-05-06T03:30:55.094Z,94.20
2023-05-06T03:33:21.895Z,94.00
2023-05-06T03:35:48.639Z,93.70
2023-05-06T03:38:15.424Z,93.70
2023-05-06T03:40:42.283Z,93.50
2023-05-06T03:43:09.033Z,93.50
2023-05-06T03:45:35.991Z,93.50
2023-05-06T03:48:02.925Z,93.60
2023-05-06T03:50:29.725Z,93.40
2023-05-06T03:52:56.680Z,93.40
2023-05-06T03:55:23.514Z,93.60
2023-05-06T03:57:50.450Z,93.40
2023-05-06T04:00:17.576Z,93.50
2023-05-06T04:02:44.447Z,93.40
2023-05-06T04:05:11.499Z,92.90
2023-05-06T04:07:38.513Z,93.10
2023-05-06T04:10:06.089Z,92.80
2023-05-06T04:12:32.900Z,93.00
2023-05-06T04:14:59.686Z,92.90
2023-05-06T04:17:26.471Z,92.80
2023-05-06T04:19:54.073Z,92.70
2023-05-06T04:22:20.967Z,92.30
2023-05-06T04:24:47.836Z,92.20
2023-05-06T04:27:15.121Z,92.50
2023-05-06T04:29:41.851Z,92.50
2023-05-06T04:32:10.351Z,92.20
2023-05-06T04:34:37.169Z,92.20
2023-05-06T04:37:03.951Z,92.50
2023-05-06T04:39:31.976Z,92.60
2023-05-06T04:41:58.812Z,92.70
2023-05-06T04:44:25.603Z,92.40
2023-05-06T04:46:52.328Z,92.30
2023-05-06T04:49:20.113Z,92.00
2023-05-06T04:51:46.860Z,92.00
2023-05-06T04:54:13.659Z,92.20
2023-05-06T04:56:40.467Z,91.80
2023-05-06T04:59:07.570Z,91.40
2023-05-06T05:01:34.366Z,90.70
2023-05-06T05:04:01.122Z,90.20
2023-05-06T05:06:27.904Z,89.70
2023-05-06T05:08:55.483Z,88.10
2023-05-06T05:11:22.405Z,87.30
2023-05-06T05:13:49.446Z,87.30
2023-05-06T05:16:16.233Z,87.00
2023-05-06T05:18:43.027Z,85.90
2023-05-06T05:21:09.826Z,85.20
2023-05-06T05:23:36.713Z,83.20
2023-05-06T05:26:03.869Z,82.20
2023-05-06T05:28:30.644Z,79.70
2023-05-06T05:31:04.815Z,78.20
2023-05-06T05:33:31.809Z,78.50
2023-05-06T05:35:58.841Z,78.50
2023-05-06T05:38:25.689Z,78.20
2023-05-06T05:40:52.420Z,78.70
2023-05-06T05:43:21.386Z,78.40
2023-05-06T05:45:48.230Z,77.60
2023-05-06T05:48:15.070Z,76.60
2023-05-06T05:50:41.843Z,76.70
2023-05-06T05:53:08.584Z,77.00
2023-05-06T05:55:35.350Z,77.10
2023-05-06T05:58:02.044Z,77.90
2023-05-06T06:00:28.801Z,78.30
2023-05-06T06:02:55.681Z,76.80
2023-05-06T06:05:22.520Z,78.00
2023-05-06T06:07:49.638Z,77.50
2023-05-06T06:10:16.431Z,77.30
2023-05-06T06:12:44.741Z,76.50
2023-05-06T06:15:12.064Z,75.50
2023-05-06T06:17:38.975Z,74.80
2023-05-06T06:20:06.568Z,75.30
2023-05-06T06:22:33.375Z,74.40
2023-05-06T06:25:00.171Z,73.50
2023-05-06T06:27:26.954Z,73.80
2023-05-06T06:29:53.689Z,73.90
2023-05-06T06:32:20.407Z,72.70
2023-05-06T06:34:47.193Z,72.60
2023-05-06T06:37:13.928Z,72.00
2023-05-06T06:39:40.747Z,72.20
2023-05-06T06:42:07.479Z,71.30
2023-05-06T06:44:34.530Z,70.30
2023-05-06T06:47:01.417Z,68.70
2023-05-06T06:49:28.206Z,68.30
2023-05-06T06:51:57.424Z,67.70
2023-05-06T06:54:24.514Z,67.10
2023-05-06T06:56:55.969Z,66.50
2023-05-06T06:59:22.957Z,65.30
2023-05-06T07:01:49.884Z,64.30
2023-05-06T07:04:16.671Z,63.10
2023-05-06T07:06:43.477Z,60.30
2023-05-06T07:09:10.326Z,59.60
2023-05-06T07:11:37.111Z,60.00
2023-05-06T07:14:03.832Z,58.40
2023-05-06T07:16:30.672Z,57.10
2023-05-06T07:18:57.553Z,57.10
2023-05-06T07:21:24.398Z,55.90
2023-05-06T07:23:51.220Z,55.50
2023-05-06T07:26:17.974Z,55.30
2023-05-06T07:28:44.961Z,54.20
2023-05-06T07:31:11.719Z,53.70
2023-05-06T07:33:41.964Z,53.70
2023-05-06T07:36:08.819Z,53.00
2023-05-06T07:38:35.611Z,51.70
2023-05-06T07:41:02.500Z,52.60
2023-05-06T07:43:29.282Z,51.60
2023-05-06T07:46:02.940Z,50.90
2023-05-06T07:48:30.583Z,49.70
2023-05-06T07:50:58.142Z,49.40
2023-05-06T07:53:25.010Z,48.40
2023-05-06T07:55:52.709Z,47.90
2023-05-06T07:58:19.551Z,47.40
2023-05-06T08:00:46.315Z,46.50
2023-05-06T08:03:13.252Z,45.60
2023-05-06T08:05:40.234Z,45.00
2023-05-06T08:08:06.967Z,44.90
2023-05-06T08:10:34.209Z,43.80
2023-05-06T08:13:01.005Z,43.80
2023-05-06T08:15:27.859Z,43.50
2023-05-06T08:17:56.011Z,43.00
2023-05-06T08:20:23.329Z,41.40
2023-05-06T08:22:50.055Z,42.60
2023-05-06T08:25:16.931Z,42.20
2023-05-06T08:27:43.698Z,43.00
2023-05-06T08:30:11.203Z,42.50
2023-05-06T08:32:39.314Z,42.90
2023-05-06T08:35:07.176Z,43.50
2023-05-06T08:37:33.931Z,43.40
2023-05-06T08:40:00.655Z,43.50
2023-05-06T08:42:28.404Z,44.40
2023-05-06T08:44:56.057Z,44.40
2023-05-06T08:47:22.993Z,44.80
2023-05-06T08:49:49.888Z,44.30
2023-05-06T08:52:16.933Z,44.30
2023-05-06T08:54:45.067Z,44.40
2023-05-06T08:57:13.428Z,44.00
2023-05-06T08:59:41.618Z,44.70
2023-05-06T09:02:09.189Z,44.60
2023-05-06T09:04:37.360Z,45.10
2023-05-06T09:07:04.117Z,45.80
2023-05-06T09:09:30.799Z,45.30
2023-05-06T09:11:57.847Z,45.50
2023-05-06T09:14:24.820Z,43.50
2023-05-06T09:16:53.199Z,44.10
2023-05-06T09:19:21.930Z,43.80
2023-05-06T09:21:50.719Z,43.90
2023-05-06T09:24:17.901Z,43.30
2023-05-06T09:26:46.822Z,43.20
2023-05-06T09:29:14.016Z,43.70
2023-05-06T09:31:51.178Z,41.10
2023-05-06T09:34:18.163Z,41.20
2023-05-06T09:36:45.396Z,40.70
2023-05-06T09:39:12.225Z,41.20
2023-05-06T09:41:39.181Z,39.10
2023-05-06T09:44:06.247Z,39.20
2023-05-06T09:46:33.207Z,39.20
2023-05-06T09:49:01.556Z,39.60
2023-05-06T09:51:28.636Z,39.70
2023-05-06T09:53:58.076Z,39.90
2023-05-06T09:56:25.988Z,40.60
2023-05-06T09:58:54.434Z,40.40
2023-05-06T10:01:35.441Z,41.00
2023-05-06T10:04:10.211Z,41.60
2023-05-06T10:06:43.017Z,41.50
2023-05-06T10:09:10.790Z,41.90
2023-05-06T10:11:37.603Z,42.10
2023-05-06T10:14:05.175Z,42.30
2023-05-06T10:16:35.812Z,41.00
2023-05-06T10:19:04.727Z,40.40
2023-05-06T10:21:34.288Z,39.30
2023-05-06T10:24:07.386Z,40.00
2023-05-06T10:26:37.054Z,39.70
2023-05-06T10:29:08.691Z,39.40
2023-05-06T10:31:38.675Z,37.90
2023-05-06T10:34:08.741Z,36.80
2023-05-06T10:36:37.380Z,35.10
2023-05-06T10:39:04.863Z,37.40
2023-05-06T10:41:33.401Z,35.90
2023-05-06T10:44:00.352Z,35.20
2023-05-06T10:46:28.621Z,34.40
2023-05-06T10:49:13.979Z,34.50
2023-05-06T10:51:44.711Z,33.00
2023-05-06T10:54:22.954Z,33.70
2023-05-06T10:56:49.755Z,33.90
2023-05-06T10:59:25.082Z,33.60
2023-05-06T11:02:05.066Z,34.50
2023-05-06T11:04:32.105Z,35.20
2023-05-06T11:07:09.840Z,35.00
2023-05-06T11:09:55.844Z,35.20
2023-05-06T11:12:23.089Z,34.20
2023-05-06T11:14:49.978Z,34.10
2023-05-06T11:17:33.573Z,32.90
2023-05-06T11:20:23.380Z,31.30
2023-05-06T11:22:50.476Z,31.50
2023-05-06T11:25:53.617Z,33.00
2023-05-06T11:28:20.806Z,33.50
2023-05-06T11:30:55.915Z,33.00
2023-05-06T11:33:26.139Z,33.90
2023-05-06T11:35:53.244Z,34.40
2023-05-06T11:38:19.964Z,34.70
2023-05-06T11:40:46.762Z,33.90
2023-05-06T11:43:15.083Z,34.10
2023-05-06T11:45:46.494Z,33.30
2023-05-06T11:48:14.497Z,32.10
2023-05-06T11:50:46.097Z,32.50
2023-05-06T11:53:16.490Z,31.30
2023-05-06T11:55:44.444Z,30.90
2023-05-06T11:58:27.417Z,31.70
2023-05-06T12:00:56.957Z,30.00
2023-05-06T12:03:25.688Z,30.70
2023-05-06T12:05:53.204Z,31.10
2023-05-06T12:08:29.797Z,30.50
2023-05-06T12:11:02.287Z,31.40
2023-05-06T12:13:29.663Z,31.60
2023-05-06T12:15:58.604Z,31.80
2023-05-06T12:18:26.515Z,31.90
2023-05-06T12:20:57.212Z,31.10
2023-05-06T12:23:24.230Z,31.60
2023-05-06T12:26:09.188Z,31.40
2023-05-06T12:28:37.142Z,32.50
2023-05-06T12:31:20.878Z,32.40
2023-05-06T12:33:51.395Z,32.80
2023-05-06T12:36:19.217Z,30.90
2023-05-06T12:39:01.024Z,31.90
2023-05-06T12:41:38.429Z,32.40
2023-05-06T12:44:34.897Z,31.10
2023-05-06T12:47:07.774Z,31.80
2023-05-06T12:49:53.217Z,31.70
2023-05-06T12:52:22.142Z,31.20
2023-05-06T12:54:49.840Z,31.80
2023-05-06T12:57:17.095Z,31.40
2023-05-06T12:59:45.916Z,30.50
2023-05-06T13:02:13.947Z,31.80
2023-05-06T13:04:41.717Z,32.00
2023-05-06T13:07:08.920Z,30.50
2023-05-06T13:09:36.069Z,29.40
2023-05-06T13:12:04.695Z,28.50
2023-05-06T13:14:31.626Z,29.10
2023-05-06T13:17:01.089Z,29.90
2023-05-06T13:19:32.855Z,29.30
2023-05-06T13:22:00.813Z,29.30
2023-05-06T13:24:28.026Z,30.30
2023-05-06T13:26:56.447Z,30.90
2023-05-06T13:29:23.813Z,30.80
2023-05-06T13:31:51.563Z,31.10
2023-05-06T13:34:18.529Z,31.80
2023-05-06T13:36:46.884Z,31.40
2023-05-06T13:39:13.862Z,31.20
2023-05-06T13:41:40.864Z,30.30
2023-05-06T13:44:07.980Z,30.10
2023-05-06T13:46:34.791Z,31.00
2023-05-06T13:49:01.579Z,31.40
2023-05-06T13:51:30.753Z,31.50
2023-05-06T13:53:57.633Z,31.60
2023-05-06T13:56:24.424Z,31.70
2023-05-06T13:58:53.126Z,31.30
2023-05-06T14:01:23.951Z,31.80
2023-05-06T14:03:51.076Z,30.60
2023-05-06T14:06:17.916Z,29.90
2023-05-06T14:08:45.343Z,29.80
2023-05-06T14:11:12.203Z,29.80
2023-05-06T14:13:40.330Z,29.80
2023-05-06T14:16:07.339Z,29.90
2023-05-06T14:18:34.520Z,30.20
2023-05-06T14:21:01.303Z,29.70
2023-05-06T14:23:28.188Z,29.70
2023-05-06T14:25:54.946Z,29.00
2023-05-06T14:28:21.700Z,29.30
2023-05-06T14:30:49.885Z,29.50
2023-05-06T14:33:16.804Z,29.50
2023-05-06T14:35:43.802Z,29.80
2023-05-06T14:38:11.010Z,30.00
2023-05-06T14:40:38.932Z,29.80
2023-05-06T14:43:07.696Z,30.00
2023-05-06T14:45:35.011Z,29.70
2023-05-06T14:48:02.109Z,29.60
2023-05-06T14:50:31.015Z,29.60
2023-05-06T14:52:57.916Z,29.40
2023-05-06T14:55:24.966Z,29.20
2023-05-06T14:57:51.716Z,28.20
2023-05-06T15:00:18.859Z,27.80
2023-05-06T15:02:46.256Z,27.50
2023-05-06T15:05:13.442Z,27.00
2023-05-06T15:07:41.188Z,27.20
2023-05-06T15:10:08.306Z,27.80
2023-05-06T15:12:36.734Z,28.10
2023-05-06T15:15:05.152Z,28.50
2023-05-06T15:17:32.603Z,28.90
2023-05-06T15:19:59.481Z,28.90
2023-05-06T15:22:26.318Z,28.60
2023-05-06T15:24:53.121Z,28.60
2023-05-06T15:27:19.922Z,28.80
2023-05-06T15:29:46.648Z,29.20
2023-05-06T15:32:13.440Z,28.70
2023-05-06T15:34:40.758Z,28.10
2023-05-06T15:37:08.156Z,28.10
2023-05-06T15:39:38.773Z,28.30
2023-05-06T15:42:06.190Z,28.80
2023-05-06T15:44:33.874Z,29.40
2023-05-06T15:47:01.098Z,29.10
2023-05-06T15:52:00.536Z,29.30
2023-05-06T15:54:28.114Z,29.00
2023-05-06T15:56:54.974Z,28.90
2023-05-06T15:59:21.808Z,28.70
2023-05-06T16:04:18.435Z,29.10
2023-05-06T16:06:45.298Z,29.00
2023-05-06T16:09:12.094Z,29.00
2023-05-06T16:11:39.146Z,29.10
2023-05-06T16:14:05.933Z,29.10
2023-05-06T16:16:32.909Z,29.20
2023-05-06T16:18:59.806Z,29.00
2023-05-06T16:21:27.139Z,28.70
2023-05-06T16:23:53.907Z,28.30
2023-05-06T16:26:20.822Z,28.40
2023-05-06T16:28:47.603Z,28.50
2023-05-06T16:31:14.435Z,28.80
2023-05-06T16:33:41.248Z,29.20
2023-05-06T16:36:08.346Z,29.30
2023-05-06T16:38:35.209Z,29.50
2023-05-06T16:41:02.129Z,29.40
2023-05-06T16:43:28.927Z,29.00
2023-05-06T16:45:55.886Z,29.10
2023-05-06T16:48:23.863Z,29.10
2023-05-06T16:50:51.861Z,29.40
2023-05-06T16:53:18.759Z,29.50
2023-05-06T16:55:49.637Z,29.40
2023-05-06T16:58:16.803Z,29.40
2023-05-06T17:00:44.093Z,29.90
2023-05-06T17:03:11.737Z,30.00
2023-05-06T17:05:38.699Z,30.00
2023-05-06T17:08:05.752Z,30.00
2023-05-06T17:10:32.609Z,30.00
2023-05-06T17:12:59.551Z,30.50
2023-05-06T17:15:26.559Z,29.80
2023-05-06T17:17:53.522Z,30.60
2023-05-06T17:20:20.889Z,30.60
2023-05-06T17:22:47.899Z,30.70
2023-05-06T17:25:15.306Z,30.10
2023-05-06T17:27:42.066Z,30.60
2023-05-06T17:30:12.459Z,30.40
2023-05-06T17:32:43.072Z,30.40
2023-05-06T17:35:10.470Z,30.60
2023-05-06T17:37:37.666Z,30.80
2023-05-06T17:40:06.836Z,30.20
2023-05-06T17:42:34.358Z,30.20
2023-05-06T17:45:01.166Z,30.30
2023-05-06T17:47:30.242Z,30.60
2023-05-06T17:49:57.496Z,30.70
2023-05-06T17:52:26.659Z,31.10
2023-05-06T17:55:06.296Z,30.90
2023-05-06T17:57:40.913Z,30.90
2023-05-06T18:00:09.233Z,31.10
2023-05-06T18:02:36.454Z,31.60
2023-05-06T18:05:03.430Z,32.00
2023-05-06T18:07:30.437Z,33.20
2023-05-06T18:09:57.280Z,33.40
2023-05-06T18:12:24.316Z,33.70
2023-05-06T18:14:51.168Z,33.10
2023-05-06T18:17:17.924Z,33.70
2023-05-06T18:19:44.766Z,33.90
2023-05-06T18:22:11.573Z,33.50
2023-05-06T18:24:38.478Z,33.50
2023-05-06T18:27:05.380Z,34.10
2023-05-06T18:29:33.240Z,34.20
2023-05-06T18:32:01.189Z,34.60
2023-05-06T18:34:28.390Z,34.90
2023-05-06T18:36:55.307Z,35.00
2023-05-06T18:39:25.993Z,35.60
2023-05-06T18:41:52.699Z,35.80
2023-05-06T18:44:19.558Z,35.70
2023-05-06T18:46:46.473Z,35.90
2023-05-06T18:49:16.518Z,35.80
2023-05-06T18:51:43.430Z,36.50
2023-05-06T18:54:10.483Z,36.20
2023-05-06T18:56:37.520Z,36.70
2023-05-06T18:59:04.468Z,36.50
2023-05-06T19:01:31.550Z,37.20
2023-05-06T19:03:58.496Z,37.30
2023-05-06T19:06:25.436Z,37.20
2023-05-06T19:08:53.577Z,37.80
2023-05-06T19:11:21.166Z,38.10
2023-05-06T19:13:48.024Z,38.10
2023-05-06T19:16:15.112Z,38.50
2023-05-06T19:18:41.986Z,38.70
2023-05-06T19:21:12.763Z,39.10
2023-05-06T19:23:39.530Z,39.60
2023-05-06T19:26:07.034Z,39.70
2023-05-06T19:28:34.423Z,39.60
2023-05-06T19:31:01.722Z,39.70
2023-05-06T19:33:28.742Z,39.90
2023-05-06T19:35:55.552Z,40.40
2023-05-06T19:38:22.413Z,40.60
2023-05-06T19:40:49.321Z,40.80
2023-05-06T19:43:16.157Z,40.90
2023-05-06T19:45:43.032Z,41.20
2023-05-06T19:48:09.824Z,41.50
2023-05-06T19:50:36.771Z,42.30
2023-05-06T19:53:03.840Z,42.50
2023-05-06T19:55:31.138Z,43.10
2023-05-06T19:57:58.434Z,43.60
2023-05-06T20:00:28.118Z,44.50
2023-05-06T20:02:58.701Z,45.00
2023-05-06T20:05:30.842Z,45.30
2023-05-06T20:07:59.949Z,45.40
2023-05-06T20:10:28.086Z,45.60
2023-05-06T20:12:57.330Z,45.60
2023-05-06T20:15:26.869Z,45.60
2023-05-06T20:17:54.024Z,45.40
2023-05-06T20:20:21.160Z,44.80
2023-05-06T20:22:48.005Z,45.20
2023-05-06T20:25:17.556Z,46.00
2023-05-06T20:27:45.404Z,46.20
2023-05-06T20:30:13.005Z,46.60
2023-05-06T20:32:40.884Z,46.80
2023-05-06T20:35:09.023Z,47.00
2023-05-06T20:37:36.822Z,47.30
2023-05-06T20:40:05.749Z,47.40
2023-05-06T20:42:32.542Z,47.60
2023-05-06T20:45:00.069Z,47.90
2023-05-06T20:47:27.265Z,48.20
2023-05-06T20:49:54.540Z,48.70
2023-05-06T20:52:21.831Z,49.20
2023-05-06T20:54:49.102Z,49.70
2023-05-06T20:57:16.700Z,50.10
2023-05-06T20:59:43.970Z,51.40
2023-05-06T21:02:11.136Z,51.80
2023-05-06T21:04:38.125Z,51.80
2023-05-06T21:07:04.977Z,52.10
2023-05-06T21:09:31.821Z,51.80
2023-05-06T21:11:58.937Z,51.80
2023-05-06T21:14:26.806Z,51.80
2023-05-06T21:16:53.895Z,51.70
2023-05-06T21:19:21.042Z,51.80
2023-05-06T21:21:48.404Z,52.50
2023-05-06T21:24:15.525Z,53.20
2023-05-06T21:26:42.439Z,53.50
2023-05-06T21:29:09.315Z,53.70
2023-05-06T21:31:36.399Z,53.50
2023-05-06T21:34:04.236Z,54.00
2023-05-06T21:36:31.356Z,54.50
2023-05-06T21:39:12.129Z,55.80
2023-05-06T21:41:39.774Z,56.00
2023-05-06T21:44:08.464Z,55.70
2023-05-06T21:46:36.668Z,55.30
2023-05-06T21:49:03.884Z,55.30
2023-05-06T21:51:32.580Z,55.10
2023-05-06T21:53:59.453Z,55.10
2023-05-06T21:56:26.245Z,54.60
2023-05-06T21:58:55.712Z,53.70
2023-05-06T22:01:26.125Z,52.80
2023-05-06T22:03:53.901Z,53.20
2023-05-06T22:06:21.449Z,53.10
2023-05-06T22:08:48.295Z,53.10
2023-05-06T22:11:15.193Z,52.80
2023-05-06T22:13:41.923Z,52.70
2023-05-06T22:16:09.829Z,52.90
2023-05-06T22:18:41.227Z,53.10
2023-05-06T22:21:08.688Z,53.40
2023-05-06T22:23:35.734Z,53.70
2023-05-06T22:26:04.803Z,54.80
2023-05-06T22:28:31.678Z,54.60
2023-05-06T22:30:58.448Z,54.90
2023-05-06T22:33:26.861Z,55.30
2023-05-06T22:35:53.801Z,56.20
2023-05-06T22:38:20.595Z,57.20
2023-05-06T22:40:47.408Z,57.50
2023-05-06T22:43:14.093Z,58.00
2023-05-06T22:45:40.911Z,58.40
2023-05-06T22:48:07.691Z,58.70
2023-05-06T22:50:34.498Z,59.00
2023-05-06T22:53:10.361Z,59.70
2023-05-06T22:55:41.548Z,60.50
2023-05-06T22:58:08.331Z,62.10
2023-05-06T23:00:35.129Z,61.90
2023-05-06T23:03:01.985Z,61.90
2023-05-06T23:05:28.830Z,62.10
2023-05-06T23:07:55.546Z,61.90
2023-05-06T23:10:22.261Z,61.90
2023-05-06T23:12:49.149Z,61.70
2023-05-06T23:15:15.947Z,61.60
2023-05-06T23:17:42.706Z,61.40
2023-05-06T23:20:11.880Z,61.40
2023-05-06T23:22:38.826Z,61.70
2023-05-06T23:25:06.813Z,61.70
2023-05-06T23:27:34.724Z,61.80
2023-05-06T23:30:01.600Z,61.80
2023-05-06T23:32:28.411Z,62.10
2023-05-06T23:34:55.203Z,62.00
2023-05-06T23:37:21.994Z,62.30
2023-05-06T23:39:48.795Z,63.00
2023-05-06T23:42:15.670Z,64.10
2023-05-06T23:44:42.379Z,65.50
2023-05-06T23:47:09.135Z,66.00
2023-05-06T23:49:36.476Z,66.50
2023-05-06T23:52:03.587Z,66.90
2023-05-06T23:54:30.366Z,67.60
2023-05-06T23:56:57.098Z,68.10
2023-05-06T23:59:23.852Z,67.80
